createdAt,value
2022-12-20T00:02:20.591Z,99.90
2022-12-20T00:04:50.743Z,99.90
2022-12-20T00:07:19.834Z,99.90
2022-12-20T00:09:48.416Z,99.90
2022-12-20T00:12:17.585Z,99.90
2022-12-20T00:15:19.996Z,99.90
2022-12-20T00:17:52.535Z,99.90
2022-12-20T00:20:22.337Z,99.90
2022-12-20T00:22:50.996Z,99.90
2022-12-20T00:25:20.760Z,99.90
2022-12-20T00:28:14.155Z,99.90
2022-12-20T00:30:42.490Z,99.90
2022-12-20T00:33:11.591Z,99.90
2022-12-20T00:35:44.784Z,99.90
2022-12-20T00:38:13.296Z,99.90
2022-12-20T00:40:41.804Z,99.90
2022-12-20T00:43:10.611Z,99.90
2022-12-20T00:45:39.162Z,99.90
2022-12-20T00:48:08.177Z,99.90
2022-12-20T00:50:37.128Z,99.90
2022-12-20T00:53:10.073Z,99.90
2022-12-20T00:55:43.114Z,99.90
2022-12-20T00:58:11.880Z,99.90
2022-12-20T01:00:41.453Z,99.90
2022-12-20T01:03:10.675Z,99.90
2022-12-20T01:06:09.611Z,99.90
2022-12-20T01:08:39.400Z,99.90
2022-12-20T01:11:10.109Z,99.90
2022-12-20T01:14:12.190Z,99.90
2022-12-20T01:16:42.485Z,99.90
2022-12-20T01:19:13.372Z,99.90
2022-12-20T01:21:45.100Z,99.90
2022-12-20T01:24:15.443Z,99.90
2022-12-20T01:26:44.076Z,99.90
2022-12-20T01:29:14.517Z,99.90
2022-12-20T01:31:43.728Z,99.90
2022-12-20T01:34:13.245Z,99.90
2022-12-20T01:36:42.530Z,99.90
2022-12-20T01:39:16.149Z,99.90
2022-12-20T01:41:46.266Z,99.90
2022-12-20T01:45:06.483Z,99.90
2022-12-20T01:47:38.244Z,99.90
2022-12-20T01:50:09.492Z,99.90
2022-12-20T01:52:41.261Z,99.90
2022-12-20T01:55:14.435Z,99.90
2022-12-20T01:57:48.088Z,99.90
2022-12-20T02:00:17.603Z,99.90
2022-12-20T02:02:48.820Z,99.90
2022-12-20T02:05:18.494Z,99.90
2022-12-20T02:07:50.479Z,99.90
2022-12-20T02:10:22.109Z,99.90
2022-12-20T02:12:54.969Z,99.90
2022-12-20T02:15:33.423Z,99.90
2022-12-20T02:18:15.241Z,99.90
2022-12-20T02:21:19.999Z,99.90
2022-12-20T02:24:14.523Z,99.90
2022-12-20T02:27:25.628Z,99.90
2022-12-20T02:30:20.485Z,99.90
2022-12-20T02:33:02.740Z,99.90
2022-12-20T02:35:34.008Z,99.90
2022-12-20T02:38:29.261Z,99.90
2022-12-20T02:41:25.033Z,99.90
2022-12-20T02:44:14.527Z,99.90
2022-12-20T02:46:45.705Z,99.90
2022-12-20T02:49:18.428Z,99.90
2022-12-20T02:51:50.721Z,99.90
2022-12-20T02:54:19.955Z,99.90
2022-12-20T02:56:53.984Z,99.90
2022-12-20T02:59:26.631Z,99.90
2022-12-20T03:01:58.606Z,99.90
2022-12-20T03:04:30.052Z,99.90
2022-12-20T03:07:00.931Z,99.90
2022-12-20T03:09:29.403Z,99.90
2022-12-20T03:11:58.259Z,99.90
2022-12-20T03:14:26.646Z,99.90
2022-12-20T03:16:56.838Z,99.90
2022-12-20T03:19:44.478Z,99.90
2022-12-20T03:22:38.725Z,99.90
2022-12-20T03:25:08.098Z,99.90
2022-12-20T03:27:36.479Z,99.90
2022-12-20T03:30:05.920Z,99.90
2022-12-20T03:32:35.853Z,99.90
2022-12-20T03:35:04.403Z,99.90
2022-12-20T03:37:33.031Z,99.90
2022-12-20T03:40:01.453Z,99.90
2022-12-20T03:42:29.714Z,99.90
2022-12-20T03:44:58.416Z,99.90
2022-12-20T03:47:27.008Z,99.90
2022-12-20T03:49:57.436Z,99.90
2022-12-20T03:52:29.029Z,99.90
2022-12-20T03:54:57.516Z,99.90
2022-12-20T03:57:25.902Z,99.90
2022-12-20T03:59:54.411Z,99.90
2022-12-20T04:02:23.287Z,99.90
2022-12-20T04:04:51.967Z,99.90
2022-12-20T04:07:24.848Z,99.90
2022-12-20T04:09:53.529Z,99.90
2022-12-20T04:12:22.215Z,99.90
2022-12-20T04:14:50.905Z,99.90
2022-12-20T04:17:19.719Z,99.90
2022-12-20T04:19:48.978Z,99.90
2022-12-20T04:22:17.548Z,99.90
2022-12-20T04:24:47.962Z,99.90
2022-12-20T04:27:16.451Z,99.90
2022-12-20T04:29:44.755Z,99.90
2022-12-20T04:32:13.200Z,99.90
2022-12-20T04:34:41.548Z,99.90
2022-12-20T04:37:10.189Z,99.90
2022-12-20T04:39:38.940Z,99.90
2022-12-20T04:42:09.021Z,99.90
2022-12-20T04:44:37.630Z,99.90
2022-12-20T04:47:06.389Z,99.90
2022-12-20T04:49:34.780Z,99.90
2022-12-20T04:52:17.052Z,99.90
2022-12-20T04:54:46.968Z,99.90
2022-12-20T04:57:16.813Z,99.90
2022-12-20T04:59:45.146Z,99.90
2022-12-20T05:02:39.174Z,99.90
2022-12-20T05:05:08.420Z,99.90
2022-12-20T05:07:36.696Z,99.90
2022-12-20T05:10:05.789Z,99.90
2022-12-20T05:12:35.568Z,99.90
2022-12-20T05:15:03.800Z,99.90
2022-12-20T05:17:32.143Z,99.90
2022-12-20T05:20:00.866Z,99.90
2022-12-20T05:22:54.706Z,99.90
2022-12-20T05:25:40.165Z,99.90
2022-12-20T05:28:09.942Z,99.90
2022-12-20T05:30:38.394Z,99.90
2022-12-20T05:33:34.223Z,99.90
2022-12-20T05:36:02.952Z,99.90
2022-12-20T05:38:31.343Z,99.90
2022-12-20T05:40:59.672Z,99.90
2022-12-20T05:43:29.385Z,99.90
2022-12-20T05:45:58.807Z,99.90
2022-12-20T05:48:27.188Z,99.90
2022-12-20T05:50:55.548Z,99.90
2022-12-20T05:53:23.932Z,99.90
2022-12-20T05:55:54.152Z,99.90
2022-12-20T05:58:22.857Z,99.90
2022-12-20T06:00:52.571Z,99.90
2022-12-20T06:03:21.058Z,99.90
2022-12-20T06:05:49.739Z,99.90
2022-12-20T06:08:18.206Z,99.90
2022-12-20T06:10:46.714Z,99.90
2022-12-20T06:13:15.058Z,99.90
2022-12-20T06:15:43.656Z,99.90
2022-12-20T06:18:13.854Z,99.90
2022-12-20T06:20:42.448Z,99.90
2022-12-20T06:23:11.028Z,99.90
2022-12-20T06:25:40.261Z,99.90
2022-12-20T06:28:08.810Z,99.90
2022-12-20T06:30:37.272Z,99.90
2022-12-20T06:33:06.150Z,99.90
2022-12-20T06:35:36.292Z,99.90
2022-12-20T06:38:05.080Z,99.90
2022-12-20T06:40:33.568Z,99.90
2022-12-20T06:43:01.942Z,99.90
2022-12-20T06:45:34.676Z,97.70
2022-12-20T06:48:06.695Z,97.20
2022-12-20T06:50:36.368Z,92.70
2022-12-20T06:53:04.698Z,91.20
2022-12-20T06:55:33.424Z,87.80
2022-12-20T06:58:01.815Z,83.90
2022-12-20T07:00:30.247Z,80.60
2022-12-20T07:02:58.966Z,82.10
2022-12-20T07:05:27.543Z,83.70
2022-12-20T07:07:57.177Z,85.70
2022-12-20T07:10:25.534Z,87.60
2022-12-20T07:13:05.803Z,90.70
2022-12-20T07:15:35.162Z,92.90
2022-12-20T07:18:03.726Z,96.80
2022-12-20T07:20:32.318Z,99.90
2022-12-20T07:23:03.110Z,99.90
2022-12-20T07:25:31.518Z,99.90
2022-12-20T07:28:00.014Z,99.90
2022-12-20T07:30:28.488Z,99.90
2022-12-20T07:33:02.725Z,99.90
2022-12-20T07:35:31.125Z,99.90
2022-12-20T07:37:59.591Z,99.90
2022-12-20T07:40:30.017Z,99.90
2022-12-20T07:43:23.992Z,99.90
2022-12-20T07:45:57.379Z,99.90
2022-12-20T07:48:26.559Z,99.90
2022-12-20T07:51:00.344Z,99.90
2022-12-20T07:53:30.205Z,99.90
2022-12-20T07:56:02.954Z,99.90
2022-12-20T07:58:32.495Z,99.90
2022-12-20T08:01:01.124Z,99.90
2022-12-20T08:03:57.827Z,99.90
2022-12-20T08:06:26.391Z,99.90
2022-12-20T08:08:58.921Z,99.90
2022-12-20T08:11:31.348Z,99.90
2022-12-20T08:14:24.264Z,99.90
2022-12-20T08:16:52.845Z,99.90
2022-12-20T08:19:47.607Z,99.90
2022-12-20T08:22:16.727Z,99.90
2022-12-20T08:24:45.353Z,99.90
2022-12-20T08:27:15.480Z,99.90
2022-12-20T08:29:43.777Z,99.90
2022-12-20T08:32:14.097Z,99.90
2022-12-20T08:34:42.295Z,99.90
2022-12-20T08:37:14.914Z,99.90
2022-12-20T08:39:50.551Z,96.30
2022-12-20T08:42:20.390Z,92.40
2022-12-20T08:44:48.709Z,90.00
2022-12-20T08:47:16.946Z,79.50
2022-12-20T08:49:47.830Z,75.60
2022-12-20T08:52:16.867Z,73.30
2022-12-20T08:54:45.751Z,69.70
2022-12-20T08:57:14.190Z,66.10
2022-12-20T08:59:44.250Z,62.50
2022-12-20T09:02:12.810Z,58.60
2022-12-20T09:04:41.532Z,57.50
2022-12-20T09:07:10.725Z,58.30
2022-12-20T09:09:45.588Z,58.00
2022-12-20T09:12:14.012Z,59.10
2022-12-20T09:14:44.004Z,60.50
2022-12-20T09:17:12.640Z,62.90
2022-12-20T09:19:41.168Z,65.50
2022-12-20T09:22:10.324Z,69.10
2022-12-20T09:24:39.327Z,71.40
2022-12-20T09:27:07.861Z,72.20
2022-12-20T09:29:36.370Z,72.50
2022-12-20T09:32:06.724Z,72.50
2022-12-20T09:34:35.191Z,72.20
2022-12-20T09:37:03.639Z,71.80
2022-12-20T09:39:32.189Z,72.10
2022-12-20T09:42:00.883Z,71.80
2022-12-20T09:44:31.798Z,70.00
2022-12-20T09:47:09.777Z,72.20
2022-12-20T09:49:44.800Z,72.20
2022-12-20T09:52:36.057Z,70.30
2022-12-20T09:55:15.283Z,69.90
2022-12-20T09:58:33.551Z,72.50
2022-12-20T10:01:25.349Z,72.30
2022-12-20T10:03:57.429Z,71.50
2022-12-20T10:06:38.524Z,72.80
2022-12-20T10:09:46.694Z,74.40
2022-12-20T10:12:25.049Z,75.30
2022-12-20T10:15:05.527Z,78.60
2022-12-20T10:17:59.465Z,80.60
2022-12-20T10:20:39.447Z,83.50
2022-12-20T10:23:17.862Z,85.70
2022-12-20T10:25:49.151Z,88.10
2022-12-20T10:28:18.497Z,89.00
2022-12-20T10:30:46.820Z,90.90
2022-12-20T10:33:29.037Z,90.70
2022-12-20T10:35:57.481Z,91.30
2022-12-20T10:38:45.975Z,91.50
2022-12-20T10:41:21.982Z,91.40
2022-12-20T10:43:56.758Z,91.40
2022-12-20T10:46:35.415Z,91.50
2022-12-20T10:50:11.038Z,91.70
2022-12-20T10:52:43.013Z,90.30
2022-12-20T10:55:43.982Z,89.00
2022-12-20T10:58:17.434Z,90.10
2022-12-20T11:00:46.629Z,90.00
2022-12-20T11:03:19.943Z,86.50
2022-12-20T11:05:57.787Z,85.00
2022-12-20T11:08:51.223Z,85.30
2022-12-20T11:11:25.771Z,83.60
2022-12-20T11:14:16.534Z,86.90
2022-12-20T11:16:48.336Z,86.30
2022-12-20T11:19:37.624Z,88.50
2022-12-20T11:22:21.061Z,84.60
2022-12-20T11:25:02.647Z,83.20
2022-12-20T11:27:39.615Z,83.70
2022-12-20T11:30:14.074Z,83.80
2022-12-20T11:33:22.945Z,85.90
2022-12-20T11:35:57.834Z,88.50
2022-12-20T11:38:55.502Z,89.30
2022-12-20T11:41:31.139Z,89.80
2022-12-20T11:44:27.465Z,90.20
2022-12-20T11:47:17.453Z,89.90
2022-12-20T11:50:11.466Z,90.00
2022-12-20T11:52:45.340Z,88.40
2022-12-20T11:55:21.847Z,89.20
2022-12-20T12:00:54.963Z,88.00
2022-12-20T12:03:30.581Z,88.60
2022-12-20T12:06:05.052Z,88.20
2022-12-20T12:08:42.648Z,86.20
2022-12-20T12:12:05.149Z,87.60
2022-12-20T12:14:27.319Z,87.40
2022-12-20T12:17:01.867Z,88.00
2022-12-20T12:19:32.953Z,87.10
2022-12-20T12:22:07.302Z,87.60
2022-12-20T12:24:41.336Z,86.40
2022-12-20T12:27:16.973Z,88.50
2022-12-20T12:29:45.600Z,86.90
2022-12-20T12:32:21.972Z,87.20
2022-12-20T12:35:10.229Z,87.90
2022-12-20T12:37:56.332Z,89.70
2022-12-20T12:40:54.205Z,89.10
2022-12-20T12:43:47.124Z,88.90
2022-12-20T12:46:19.532Z,87.20
2022-12-20T12:48:56.001Z,87.40
2022-12-20T12:51:29.351Z,83.60
2022-12-20T12:54:15.703Z,85.50
2022-12-20T12:56:47.516Z,85.20
2022-12-20T12:59:52.016Z,86.70
2022-12-20T13:02:36.584Z,86.80
2022-12-20T13:05:36.023Z,87.80
2022-12-20T13:08:05.553Z,86.70
2022-12-20T13:11:09.703Z,87.40
2022-12-20T13:13:44.274Z,88.70
2022-12-20T13:17:09.353Z,88.50
2022-12-20T13:19:31.807Z,88.80
2022-12-20T13:22:22.141Z,90.00
2022-12-20T13:24:58.401Z,88.10
2022-12-20T13:27:30.314Z,88.10
2022-12-20T13:30:28.710Z,89.10
2022-12-20T13:33:19.238Z,89.30
2022-12-20T13:36:06.399Z,87.70
2022-12-20T13:39:00.954Z,89.60
2022-12-20T13:41:37.535Z,90.60
2022-12-20T13:44:30.910Z,88.80
2022-12-20T13:47:07.413Z,89.50
2022-12-20T13:49:40.099Z,90.40
2022-12-20T13:52:17.675Z,91.20
2022-12-20T13:54:50.032Z,91.80
2022-12-20T13:57:45.158Z,92.60
2022-12-20T14:00:19.060Z,93.50
2022-12-20T14:02:48.278Z,94.10
2022-12-20T14:05:20.531Z,94.60
2022-12-20T14:07:53.680Z,94.80
2022-12-20T14:10:42.354Z,94.60
2022-12-20T14:13:22.947Z,95.50
2022-12-20T14:15:52.410Z,95.40
2022-12-20T14:18:22.901Z,96.00
2022-12-20T14:20:55.218Z,96.20
2022-12-20T14:23:26.361Z,96.60
2022-12-20T14:25:59.385Z,96.40
2022-12-20T14:28:40.546Z,96.10
2022-12-20T14:31:24.164Z,95.80
2022-12-20T14:33:53.303Z,96.10
2022-12-20T14:36:22.961Z,95.80
2022-12-20T14:38:53.426Z,96.00
2022-12-20T14:41:39.805Z,96.10
2022-12-20T14:44:18.962Z,96.70
2022-12-20T14:46:52.280Z,97.60
2022-12-20T14:49:25.032Z,99.10
2022-12-20T14:52:06.814Z,99.90
2022-12-20T14:57:30.337Z,99.90
2022-12-20T15:00:25.664Z,99.90
2022-12-20T15:03:18.527Z,99.90
2022-12-20T15:05:52.810Z,99.90
2022-12-20T15:08:24.126Z,99.90
2022-12-20T15:10:59.260Z,99.90
2022-12-20T15:13:33.000Z,99.90
2022-12-20T15:16:04.844Z,99.90
2022-12-20T15:18:36.566Z,99.90
2022-12-20T15:21:08.178Z,99.90
2022-12-20T15:23:36.927Z,99.90
2022-12-20T15:26:05.830Z,99.90
2022-12-20T15:28:36.839Z,99.90
2022-12-20T15:31:06.461Z,99.90
2022-12-20T15:33:36.944Z,99.90
2022-12-20T15:36:05.475Z,99.90
2022-12-20T15:39:03.436Z,99.90
2022-12-20T15:41:24.430Z,99.90
2022-12-20T15:43:57.861Z,99.90
2022-12-20T15:46:27.081Z,99.90
2022-12-20T15:48:55.985Z,99.90
2022-12-20T15:51:29.867Z,99.90
2022-12-20T15:53:58.616Z,99.90
2022-12-20T15:56:30.120Z,99.90
2022-12-20T15:59:00.183Z,99.90
2022-12-20T16:01:40.087Z,99.90
2022-12-20T16:04:14.594Z,99.90
2022-12-20T16:06:43.977Z,99.90
2022-12-20T16:09:12.768Z,99.90
2022-12-20T16:11:42.151Z,99.90
2022-12-20T16:14:17.347Z,99.90
2022-12-20T16:16:47.972Z,99.90
2022-12-20T16:19:16.931Z,99.90
2022-12-20T16:21:47.705Z,99.90
2022-12-20T16:24:18.503Z,99.90
2022-12-20T16:27:11.823Z,99.90
2022-12-20T16:30:09.821Z,99.90
2022-12-20T16:32:38.384Z,99.90
2022-12-20T16:35:07.891Z,99.90
2022-12-20T16:37:39.165Z,99.90
2022-12-20T16:40:09.302Z,99.90
2022-12-20T16:42:37.948Z,99.90
2022-12-20T16:45:13.644Z,99.90
2022-12-20T16:47:43.217Z,99.90
2022-12-20T16:50:13.459Z,99.90
2022-12-20T16:52:42.439Z,99.90
2022-12-20T16:55:16.750Z,99.90
2022-12-20T16:57:46.012Z,99.90
2022-12-20T17:00:25.250Z,99.90
2022-12-20T17:02:54.638Z,99.90
2022-12-20T17:05:27.731Z,99.90
2022-12-20T17:07:56.590Z,99.90
2022-12-20T17:10:27.056Z,99.90
2022-12-20T17:12:55.562Z,99.90
2022-12-20T17:15:31.964Z,99.90
2022-12-20T17:18:00.212Z,99.90
2022-12-20T17:20:35.028Z,99.90
2022-12-20T17:23:05.144Z,99.90
2022-12-20T17:25:37.402Z,99.90
2022-12-20T17:28:06.277Z,99.90
2022-12-20T17:30:35.964Z,99.90
2022-12-20T17:33:04.197Z,99.90
2022-12-20T17:35:34.070Z,99.90
2022-12-20T17:38:02.856Z,99.90
2022-12-20T17:40:31.123Z,99.90
2022-12-20T17:42:59.375Z,99.90
2022-12-20T17:45:30.641Z,99.90
2022-12-20T17:48:00.653Z,99.90
2022-12-20T17:51:02.820Z,99.90
2022-12-20T17:53:31.043Z,99.90
2022-12-20T17:55:59.228Z,99.90
2022-12-20T17:58:27.484Z,99.90
2022-12-20T18:00:55.748Z,99.90
2022-12-20T18:04:01.500Z,99.90
2022-12-20T18:06:13.596Z,99.90
2022-12-20T18:08:42.468Z,99.90
2022-12-20T18:11:19.431Z,99.90
2022-12-20T18:13:49.299Z,99.90
2022-12-20T18:16:20.373Z,99.90
2022-12-20T18:18:50.668Z,99.90
2022-12-20T18:21:21.039Z,99.90
2022-12-20T18:23:49.702Z,99.90
2022-12-20T18:26:20.798Z,99.90
2022-12-20T18:28:51.080Z,99.90
2022-12-20T18:31:21.484Z,99.90
2022-12-20T18:33:55.746Z,99.90
2022-12-20T18:36:28.915Z,99.90
2022-12-20T18:38:58.903Z,99.90
2022-12-20T18:41:29.803Z,99.90
2022-12-20T18:43:59.780Z,99.90
2022-12-20T18:46:33.329Z,99.90
2022-12-20T18:49:03.295Z,99.90
2022-12-20T18:51:37.062Z,99.90
2022-12-20T18:54:07.132Z,99.90
2022-12-20T18:56:38.570Z,99.90
2022-12-20T18:59:11.812Z,99.90
2022-12-20T19:01:42.664Z,99.90
2022-12-20T19:04:14.248Z,99.90
2022-12-20T19:06:43.736Z,99.90
2022-12-20T19:09:14.341Z,99.90
2022-12-20T19:11:43.094Z,99.90
2022-12-20T19:14:13.138Z,99.90
2022-12-20T19:16:42.026Z,99.90
2022-12-20T19:19:12.567Z,99.90
2022-12-20T19:21:43.028Z,99.90
2022-12-20T19:24:13.024Z,99.90
2022-12-20T19:26:41.864Z,99.90
2022-12-20T19:29:11.655Z,99.90
2022-12-20T19:31:40.051Z,99.90
2022-12-20T19:34:11.877Z,99.90
2022-12-20T19:36:43.766Z,99.90
2022-12-20T19:39:16.131Z,99.90
2022-12-20T19:41:54.847Z,99.90
2022-12-20T19:44:28.376Z,99.90
2022-12-20T19:46:56.714Z,99.90
2022-12-20T19:49:24.977Z,99.90
2022-12-20T19:51:54.625Z,99.90
2022-12-20T19:54:22.811Z,99.90
2022-12-20T19:56:51.087Z,99.90
2022-12-20T19:59:19.310Z,99.90
2022-12-20T20:01:47.632Z,99.90
2022-12-20T20:04:15.923Z,99.90
2022-12-20T20:06:44.194Z,99.90
2022-12-20T20:09:13.956Z,99.90
2022-12-20T20:11:42.202Z,99.90
2022-12-20T20:14:35.853Z,99.90
2022-12-20T20:17:04.121Z,99.90
2022-12-20T20:19:33.015Z,99.90
2022-12-20T20:22:01.247Z,99.90
2022-12-20T20:24:31.005Z,99.90
2022-12-20T20:26:59.332Z,99.90
2022-12-20T20:29:27.537Z,99.90
2022-12-20T20:31:55.752Z,99.90
2022-12-20T20:34:24.112Z,99.90
2022-12-20T20:37:17.625Z,99.90
2022-12-20T20:39:47.950Z,99.90
2022-12-20T20:42:21.528Z,99.90
2022-12-20T20:44:51.775Z,99.90
2022-12-20T20:47:20.623Z,99.90
2022-12-20T20:49:48.818Z,99.90
2022-12-20T20:52:41.728Z,99.90
2022-12-20T20:55:12.131Z,99.90
2022-12-20T20:57:40.437Z,99.90
2022-12-20T21:00:10.363Z,99.90
2022-12-20T21:02:38.799Z,99.90
2022-12-20T21:05:58.576Z,99.90
2022-12-20T21:07:56.133Z,99.90
2022-12-20T21:10:27.110Z,99.90
2022-12-20T21:12:55.693Z,99.90
2022-12-20T21:15:26.107Z,99.90
2022-12-20T21:17:54.420Z,99.90
2022-12-20T21:20:26.332Z,99.90
2022-12-20T21:22:55.133Z,99.90
2022-12-20T21:25:43.903Z,99.90
2022-12-20T21:28:17.687Z,99.90
2022-12-20T21:30:49.348Z,99.90
2022-12-20T21:33:17.658Z,99.90
2022-12-20T21:35:51.665Z,99.90
2022-12-20T21:38:22.461Z,99.90
2022-12-20T21:40:52.136Z,99.90
2022-12-20T21:43:20.339Z,99.90
2022-12-20T21:45:51.369Z,99.90
2022-12-20T21:48:19.612Z,99.90
2022-12-20T21:50:47.796Z,99.90
2022-12-20T21:53:19.572Z,99.90
2022-12-20T21:55:48.046Z,99.90
2022-12-20T21:58:17.704Z,99.90
2022-12-20T22:00:49.558Z,99.90
2022-12-20T22:03:23.732Z,99.90
2022-12-20T22:05:54.146Z,99.90
2022-12-20T22:08:30.388Z,99.90
2022-12-20T22:11:04.057Z,99.90
2022-12-20T22:13:40.654Z,99.90
2022-12-20T22:16:10.760Z,99.90
2022-12-20T22:18:39.520Z,99.90
2022-12-20T22:21:09.906Z,99.90
2022-12-20T22:23:38.513Z,99.90
2022-12-20T22:26:09.498Z,99.90
2022-12-20T22:28:39.893Z,99.90
2022-12-20T22:31:09.582Z,99.90
2022-12-20T22:33:38.957Z,99.90
2022-12-20T22:36:09.649Z,99.90
2022-12-20T22:38:37.953Z,99.90
2022-12-20T22:41:10.729Z,99.90
2022-12-20T22:43:43.032Z,99.90
2022-12-20T22:46:12.881Z,99.90
2022-12-20T22:48:42.091Z,99.90
2022-12-20T22:51:12.575Z,99.90
2022-12-20T22:53:41.495Z,99.90
2022-12-20T22:56:10.677Z,99.90
2022-12-20T22:58:41.374Z,99.90
2022-12-20T23:01:11.918Z,99.90
2022-12-20T23:03:40.634Z,99.90
2022-12-20T23:06:12.505Z,99.90
2022-12-20T23:08:40.859Z,99.90
2022-12-20T23:11:33.998Z,99.90
2022-12-20T23:14:21.855Z,99.90
2022-12-20T23:16:50.358Z,99.90
2022-12-20T23:20:25.962Z,99.90
2022-12-20T23:23:19.912Z,99.90
2022-12-20T23:25:56.931Z,99.90
2022-12-20T23:28:25.466Z,99.90
2022-12-20T23:30:55.027Z,99.90
2022-12-20T23:33:23.285Z,99.90
2022-12-20T23:35:57.585Z,99.90
2022-12-20T23:38:26.196Z,99.90
2022-12-20T23:40:54.477Z,99.90
2022-12-20T23:43:22.768Z,99.90
2022-12-20T23:45:51.255Z,99.90
2022-12-20T23:48:20.902Z,99.90
2022-12-20T23:50:56.864Z,99.90
2022-12-20T23:53:25.059Z,99.90
2022-12-20T23:55:58.781Z,99.90
2022-12-20T23:58:27.066Z,99.90
